sensor_id;sensor_type;location;lat;lon;timestamp;P1;durP1;ratioP1;P2;durP2;ratioP2
12222;SDS011;6174;49.058;8.524;2022-12-18T06:02:52;30.47;;;21.03;;
12222;SDS011;6174;49.058;8.524;2022-12-18T06:05:19;32.63;;;22.37;;
12222;SDS011;6174;49.058;8.524;2022-12-18T06:07:46;31.93;;;22.20;;
12222;SDS011;6174;49.058;8.524;2022-12-18T06:10:13;32.20;;;21.97;;
12222;SDS011;6174;49.058;8.524;2022-12-18T06:12:39;32.63;;;22.23;;
12222;SDS011;6174;49.058;8.524;2022-12-18T06:15:07;33.87;;;22.23;;
12222;SDS011;6174;49.058;8.524;2022-12-18T06:17:34;33.00;;;23.97;;
12222;SDS011;6174;49.058;8.524;2022-12-18T06:20:02;35.30;;;22.73;;
12222;SDS011;6174;49.058;8.524;2022-12-18T06:22:31;34.33;;;23.33;;
12222;SDS011;6174;49.058;8.524;2022-12-18T06:24:58;34.50;;;23.17;;
12222;SDS011;6174;49.058;8.524;2022-12-18T06:27:25;36.50;;;23.90;;
12222;SDS011;6174;49.058;8.524;2022-12-18T06:29:53;34.00;;;22.90;;
12222;SDS011;6174;49.058;8.524;2022-12-18T06:32:19;35.60;;;23.63;;
12222;SDS011;6174;49.058;8.524;2022-12-18T06:34:48;32.17;;;22.53;;
12222;SDS011;6174;49.058;8.524;2022-12-18T06:37:16;34.27;;;23.20;;
12222;SDS011;6174;49.058;8.524;2022-12-18T06:39:45;31.67;;;22.60;;
12222;SDS011;6174;49.058;8.524;2022-12-18T06:42:12;32.13;;;23.57;;
12222;SDS011;6174;49.058;8.524;2022-12-18T06:44:38;30.40;;;21.70;;
12222;SDS011;6174;49.058;8.524;2022-12-18T06:47:05;30.97;;;22.33;;
12222;SDS011;6174;49.058;8.524;2022-12-18T06:49:32;29.43;;;21.30;;
12222;SDS011;6174;49.058;8.524;2022-12-18T06:51:59;31.73;;;22.07;;
12222;SDS011;6174;49.058;8.524;2022-12-18T06:54:27;32.17;;;22.43;;
12222;SDS011;6174;49.058;8.524;2022-12-18T06:56:53;32.27;;;22.10;;
12222;SDS011;6174;49.058;8.524;2022-12-18T06:59:23;29.80;;;21.73;;
12222;SDS011;6174;49.058;8.524;2022-12-18T07:01:49;31.30;;;22.63;;
12222;SDS011;6174;49.058;8.524;2022-12-18T07:04:16;29.60;;;21.67;;
12222;SDS011;6174;49.058;8.524;2022-12-18T07:06:43;30.00;;;20.33;;
12222;SDS011;6174;49.058;8.524;2022-12-18T07:09:09;31.10;;;20.80;;
12222;SDS011;6174;49.058;8.524;2022-12-18T07:11:37;30.17;;;20.83;;
12222;SDS011;6174;49.058;8.524;2022-12-18T07:14:04;28.93;;;21.17;;
12222;SDS011;6174;49.058;8.524;2022-12-18T07:16:32;32.63;;;21.93;;
12222;SDS011;6174;49.058;8.524;2022-12-18T07:18:59;29.17;;;21.53;;
12222;SDS011;6174;49.058;8.524;2022-12-18T07:21:25;28.37;;;20.87;;
12222;SDS011;6174;49.058;8.524;2022-12-18T07:23:52;28.77;;;21.77;;
12222;SDS011;6174;49.058;8.524;2022-12-18T07:26:20;26.43;;;20.97;;
12222;SDS011;6174;49.058;8.524;2022-12-18T07:28:48;28.83;;;21.53;;
12222;SDS011;6174;49.058;8.524;2022-12-18T07:31:16;30.77;;;21.97;;
12222;SDS011;6174;49.058;8.524;2022-12-18T07:33:45;32.33;;;23.10;;
12222;SDS011;6174;49.058;8.524;2022-12-18T07:36:12;30.30;;;22.90;;
12222;SDS011;6174;49.058;8.524;2022-12-18T07:38:39;31.70;;;22.27;;
12222;SDS011;6174;49.058;8.524;2022-12-18T07:41:07;29.93;;;22.30;;
12222;SDS011;6174;49.058;8.524;2022-12-18T07:43:35;28.13;;;22.00;;
12222;SDS011;6174;49.058;8.524;2022-12-18T07:46:03;28.50;;;21.93;;
12222;SDS011;6174;49.058;8.524;2022-12-18T07:48:30;27.73;;;20.67;;
12222;SDS011;6174;49.058;8.524;2022-12-18T07:50:58;28.20;;;22.07;;
12222;SDS011;6174;49.058;8.524;2022-12-18T07:53:25;28.63;;;22.40;;
12222;SDS011;6174;49.058;8.524;2022-12-18T07:55:54;29.70;;;21.90;;
12222;SDS011;6174;49.058;8.524;2022-12-18T07:58:22;30.03;;;21.80;;
12222;SDS011;6174;49.058;8.524;2022-12-18T08:00:48;30.23;;;21.67;;
12222;SDS011;6174;49.058;8.524;2022-12-18T08:03:17;29.50;;;20.80;;
12222;SDS011;6174;49.058;8.524;2022-12-18T08:05:43;29.63;;;21.70;;
12222;SDS011;6174;49.058;8.524;2022-12-18T08:08:10;30.17;;;22.97;;
12222;SDS011;6174;49.058;8.524;2022-12-18T08:10:37;35.53;;;27.33;;
12222;SDS011;6174;49.058;8.524;2022-12-18T08:13:04;32.20;;;23.90;;
12222;SDS011;6174;49.058;8.524;2022-12-18T08:15:31;28.00;;;21.40;;
12222;SDS011;6174;49.058;8.524;2022-12-18T08:17:57;31.10;;;23.30;;
12222;SDS011;6174;49.058;8.524;2022-12-18T08:20:25;30.97;;;22.93;;
12222;SDS011;6174;49.058;8.524;2022-12-18T08:22:54;33.47;;;24.07;;
12222;SDS011;6174;49.058;8.524;2022-12-18T08:25:23;32.87;;;23.60;;
12222;SDS011;6174;49.058;8.524;2022-12-18T08:27:49;31.57;;;23.63;;
12222;SDS011;6174;49.058;8.524;2022-12-18T08:30:16;32.00;;;22.07;;
12222;SDS011;6174;49.058;8.524;2022-12-18T08:32:43;32.87;;;23.10;;
12222;SDS011;6174;49.058;8.524;2022-12-18T08:35:10;30.63;;;23.20;;
12222;SDS011;6174;49.058;8.524;2022-12-18T08:37:38;32.00;;;23.43;;
12222;SDS011;6174;49.058;8.524;2022-12-18T08:40:06;33.93;;;24.93;;
12222;SDS011;6174;49.058;8.524;2022-12-18T08:42:34;31.47;;;22.70;;
12222;SDS011;6174;49.058;8.524;2022-12-18T08:45:18;30.27;;;22.90;;
12222;SDS011;6174;49.058;8.524;2022-12-18T08:47:44;32.87;;;23.20;;
12222;SDS011;6174;49.058;8.524;2022-12-18T08:50:11;32.73;;;24.33;;
12222;SDS011;6174;49.058;8.524;2022-12-18T08:52:39;30.80;;;23.73;;
12222;SDS011;6174;49.058;8.524;2022-12-18T08:55:07;32.50;;;24.10;;
12222;SDS011;6174;49.058;8.524;2022-12-18T08:57:34;30.03;;;23.27;;
12222;SDS011;6174;49.058;8.524;2022-12-18T09:00:01;30.40;;;23.53;;
12222;SDS011;6174;49.058;8.524;2022-12-18T09:02:28;28.53;;;21.60;;
12222;SDS011;6174;49.058;8.524;2022-12-18T09:04:55;31.93;;;23.23;;
12222;SDS011;6174;49.058;8.524;2022-12-18T09:07:21;28.77;;;21.33;;
12222;SDS011;6174;49.058;8.524;2022-12-18T09:09:49;27.53;;;21.33;;
12222;SDS011;6174;49.058;8.524;2022-12-18T09:12:16;30.37;;;22.73;;
12222;SDS011;6174;49.058;8.524;2022-12-18T09:14:43;28.17;;;22.77;;
12222;SDS011;6174;49.058;8.524;2022-12-18T09:17:10;28.07;;;21.97;;
12222;SDS011;6174;49.058;8.524;2022-12-18T09:19:36;29.77;;;22.60;;
12222;SDS011;6174;49.058;8.524;2022-12-18T09:22:03;28.20;;;21.67;;
12222;SDS011;6174;49.058;8.524;2022-12-18T09:24:30;31.37;;;24.20;;
12222;SDS011;6174;49.058;8.524;2022-12-18T09:27:01;28.87;;;22.70;;
12222;SDS011;6174;49.058;8.524;2022-12-18T09:29:28;33.23;;;25.63;;
12222;SDS011;6174;49.058;8.524;2022-12-18T09:31:55;30.50;;;23.63;;
12222;SDS011;6174;49.058;8.524;2022-12-18T09:34:21;31.73;;;25.53;;
12222;SDS011;6174;49.058;8.524;2022-12-18T09:36:48;27.40;;;22.43;;
12222;SDS011;6174;49.058;8.524;2022-12-18T09:39:15;31.40;;;23.47;;
12222;SDS011;6174;49.058;8.524;2022-12-18T09:41:43;31.77;;;23.23;;
12222;SDS011;6174;49.058;8.524;2022-12-18T09:44:18;30.23;;;22.67;;
12222;SDS011;6174;49.058;8.524;2022-12-18T09:46:50;27.73;;;22.03;;
12222;SDS011;6174;49.058;8.524;2022-12-18T09:49:23;32.33;;;24.20;;
12222;SDS011;6174;49.058;8.524;2022-12-18T09:51:54;28.57;;;20.53;;
12222;SDS011;6174;49.058;8.524;2022-12-18T09:54:28;32.83;;;22.13;;
12222;SDS011;6174;49.058;8.524;2022-12-18T09:56:59;34.97;;;26.30;;
12222;SDS011;6174;49.058;8.524;2022-12-18T09:59:29;25.50;;;18.10;;
12222;SDS011;6174;49.058;8.524;2022-12-18T10:02:00;25.83;;;20.37;;
12222;SDS011;6174;49.058;8.524;2022-12-18T10:04:37;27.47;;;20.23;;
12222;SDS011;6174;49.058;8.524;2022-12-18T10:07:06;28.73;;;19.03;;
12222;SDS011;6174;49.058;8.524;2022-12-18T10:09:42;26.50;;;20.40;;
12222;SDS011;6174;49.058;8.524;2022-12-18T10:12:19;25.73;;;19.63;;
12222;SDS011;6174;49.058;8.524;2022-12-18T10:14:51;30.87;;;22.53;;
12222;SDS011;6174;49.058;8.524;2022-12-18T10:17:26;27.50;;;19.73;;
12222;SDS011;6174;49.058;8.524;2022-12-18T10:20:05;25.10;;;20.23;;
12222;SDS011;6174;49.058;8.524;2022-12-18T10:22:43;27.43;;;21.00;;
12222;SDS011;6174;49.058;8.524;2022-12-18T10:25:18;25.27;;;19.90;;
12222;SDS011;6174;49.058;8.524;2022-12-18T10:27:51;25.53;;;20.70;;
12222;SDS011;6174;49.058;8.524;2022-12-18T10:30:23;24.23;;;17.77;;
12222;SDS011;6174;49.058;8.524;2022-12-18T10:32:51;25.10;;;18.97;;
12222;SDS011;6174;49.058;8.524;2022-12-18T10:35:22;25.00;;;18.33;;
12222;SDS011;6174;49.058;8.524;2022-12-18T10:37:59;25.80;;;18.30;;
12222;SDS011;6174;49.058;8.524;2022-12-18T10:40:32;24.03;;;17.70;;
12222;SDS011;6174;49.058;8.524;2022-12-18T10:43:14;26.00;;;19.03;;
12222;SDS011;6174;49.058;8.524;2022-12-18T10:45:56;21.80;;;16.70;;
12222;SDS011;6174;49.058;8.524;2022-12-18T10:48:26;24.97;;;18.20;;
12222;SDS011;6174;49.058;8.524;2022-12-18T10:50:53;23.60;;;19.03;;
12222;SDS011;6174;49.058;8.524;2022-12-18T10:53:22;25.90;;;18.93;;
12222;SDS011;6174;49.058;8.524;2022-12-18T10:55:50;24.60;;;18.17;;
12222;SDS011;6174;49.058;8.524;2022-12-18T10:58:29;22.67;;;17.17;;
12222;SDS011;6174;49.058;8.524;2022-12-18T11:01:09;25.73;;;18.77;;
12222;SDS011;6174;49.058;8.524;2022-12-18T11:03:37;22.80;;;17.30;;
12222;SDS011;6174;49.058;8.524;2022-12-18T11:06:07;26.17;;;18.30;;
12222;SDS011;6174;49.058;8.524;2022-12-18T11:08:35;23.07;;;17.80;;
12222;SDS011;6174;49.058;8.524;2022-12-18T11:11:03;27.60;;;18.60;;
12222;SDS011;6174;49.058;8.524;2022-12-18T11:13:33;25.50;;;18.43;;
12222;SDS011;6174;49.058;8.524;2022-12-18T11:16:00;26.40;;;19.33;;
12222;SDS011;6174;49.058;8.524;2022-12-18T11:18:29;25.10;;;18.80;;
12222;SDS011;6174;49.058;8.524;2022-12-18T11:20:58;23.10;;;17.57;;
12222;SDS011;6174;49.058;8.524;2022-12-18T11:23:27;23.93;;;17.53;;
12222;SDS011;6174;49.058;8.524;2022-12-18T11:25:55;25.67;;;20.90;;
12222;SDS011;6174;49.058;8.524;2022-12-18T11:28:29;27.47;;;21.23;;
12222;SDS011;6174;49.058;8.524;2022-12-18T11:31:15;25.00;;;19.63;;
12222;SDS011;6174;49.058;8.524;2022-12-18T11:33:46;25.87;;;19.27;;
12222;SDS011;6174;49.058;8.524;2022-12-18T11:36:18;29.17;;;19.70;;
12222;SDS011;6174;49.058;8.524;2022-12-18T11:38:47;25.63;;;18.40;;
12222;SDS011;6174;49.058;8.524;2022-12-18T11:41:18;25.97;;;18.87;;
12222;SDS011;6174;49.058;8.524;2022-12-18T11:44:09;27.97;;;18.03;;
12222;SDS011;6174;49.058;8.524;2022-12-18T11:46:40;26.80;;;18.23;;
12222;SDS011;6174;49.058;8.524;2022-12-18T11:49:15;25.13;;;18.90;;
12222;SDS011;6174;49.058;8.524;2022-12-18T11:51:47;25.03;;;19.70;;
12222;SDS011;6174;49.058;8.524;2022-12-18T11:54:17;26.93;;;19.27;;
12222;SDS011;6174;49.058;8.524;2022-12-18T11:56:46;27.57;;;20.77;;
12222;SDS011;6174;49.058;8.524;2022-12-18T11:59:16;25.70;;;20.00;;
12222;SDS011;6174;49.058;8.524;2022-12-18T12:01:56;25.87;;;19.57;;
12222;SDS011;6174;49.058;8.524;2022-12-18T12:04:38;25.47;;;19.77;;
12222;SDS011;6174;49.058;8.524;2022-12-18T12:07:17;25.90;;;19.07;;
12222;SDS011;6174;49.058;8.524;2022-12-18T12:09:56;24.90;;;19.73;;
12222;SDS011;6174;49.058;8.524;2022-12-18T12:12:33;27.70;;;21.57;;
12222;SDS011;6174;49.058;8.524;2022-12-18T12:15:13;27.33;;;20.70;;
12222;SDS011;6174;49.058;8.524;2022-12-18T12:17:50;24.23;;;18.67;;
12222;SDS011;6174;49.058;8.524;2022-12-18T12:20:25;25.40;;;19.20;;
12222;SDS011;6174;49.058;8.524;2022-12-18T12:23:06;27.57;;;20.37;;
12222;SDS011;6174;49.058;8.524;2022-12-18T12:25:43;25.90;;;20.27;;
12222;SDS011;6174;49.058;8.524;2022-12-18T12:28:17;26.30;;;19.30;;
12222;SDS011;6174;49.058;8.524;2022-12-18T12:31:02;26.80;;;20.43;;
12222;SDS011;6174;49.058;8.524;2022-12-18T12:33:36;27.63;;;20.03;;
12222;SDS011;6174;49.058;8.524;2022-12-18T12:36:15;26.87;;;20.20;;
12222;SDS011;6174;49.058;8.524;2022-12-18T12:38:49;27.03;;;19.87;;
12222;SDS011;6174;49.058;8.524;2022-12-18T12:41:20;29.23;;;19.30;;
12222;SDS011;6174;49.058;8.524;2022-12-18T12:44:08;25.20;;;19.23;;
12222;SDS011;6174;49.058;8.524;2022-12-18T12:46:42;23.43;;;18.17;;
12222;SDS011;6174;49.058;8.524;2022-12-18T12:49:11;26.33;;;20.37;;
12222;SDS011;6174;49.058;8.524;2022-12-18T12:51:43;24.40;;;18.50;;
12222;SDS011;6174;49.058;8.524;2022-12-18T12:54:14;27.43;;;20.73;;
12222;SDS011;6174;49.058;8.524;2022-12-18T12:56:45;25.67;;;19.83;;
12222;SDS011;6174;49.058;8.524;2022-12-18T12:59:19;25.73;;;19.77;;
12222;SDS011;6174;49.058;8.524;2022-12-18T13:01:53;25.93;;;19.60;;
12222;SDS011;6174;49.058;8.524;2022-12-18T13:04:28;27.70;;;20.33;;
12222;SDS011;6174;49.058;8.524;2022-12-18T13:07:03;25.33;;;19.03;;
12222;SDS011;6174;49.058;8.524;2022-12-18T13:10:10;27.47;;;22.17;;
12222;SDS011;6174;49.058;8.524;2022-12-18T13:12:50;27.90;;;20.77;;
12222;SDS011;6174;49.058;8.524;2022-12-18T13:15:26;27.00;;;20.40;;
12222;SDS011;6174;49.058;8.524;2022-12-18T13:18:03;28.07;;;20.33;;
12222;SDS011;6174;49.058;8.524;2022-12-18T13:20:34;28.43;;;21.07;;
12222;SDS011;6174;49.058;8.524;2022-12-18T13:23:17;27.60;;;20.70;;
12222;SDS011;6174;49.058;8.524;2022-12-18T13:25:52;29.27;;;21.37;;
12222;SDS011;6174;49.058;8.524;2022-12-18T13:28:20;28.47;;;21.20;;
12222;SDS011;6174;49.058;8.524;2022-12-18T13:30:50;26.40;;;21.70;;
12222;SDS011;6174;49.058;8.524;2022-12-18T13:36:26;27.87;;;21.73;;
12222;SDS011;6174;49.058;8.524;2022-12-18T13:45:35;29.13;;;21.67;;
12222;SDS011;6174;49.058;8.524;2022-12-18T13:48:05;29.17;;;22.37;;
12222;SDS011;6174;49.058;8.524;2022-12-18T13:50:42;28.17;;;20.80;;
12222;SDS011;6174;49.058;8.524;2022-12-18T13:53:15;29.27;;;22.23;;
12222;SDS011;6174;49.058;8.524;2022-12-18T13:55:48;27.90;;;21.50;;
12222;SDS011;6174;49.058;8.524;2022-12-18T13:58:15;27.47;;;21.00;;
12222;SDS011;6174;49.058;8.524;2022-12-18T14:00:42;28.63;;;21.90;;
12222;SDS011;6174;49.058;8.524;2022-12-18T14:03:16;26.63;;;21.07;;
12222;SDS011;6174;49.058;8.524;2022-12-18T14:05:45;29.60;;;21.43;;
12222;SDS011;6174;49.058;8.524;2022-12-18T14:08:18;26.47;;;20.90;;
12222;SDS011;6174;49.058;8.524;2022-12-18T14:10:45;26.23;;;21.17;;
12222;SDS011;6174;49.058;8.524;2022-12-18T14:13:23;29.67;;;21.37;;
12222;SDS011;6174;49.058;8.524;2022-12-18T14:15:53;27.73;;;21.40;;
12222;SDS011;6174;49.058;8.524;2022-12-18T14:18:22;28.53;;;21.80;;
12222;SDS011;6174;49.058;8.524;2022-12-18T14:20:51;27.70;;;20.37;;
12222;SDS011;6174;49.058;8.524;2022-12-18T14:23:27;28.93;;;21.37;;
12222;SDS011;6174;49.058;8.524;2022-12-18T14:25:55;28.47;;;22.93;;
12222;SDS011;6174;49.058;8.524;2022-12-18T14:28:24;26.20;;;21.80;;
12222;SDS011;6174;49.058;8.524;2022-12-18T14:30:51;28.07;;;21.77;;
12222;SDS011;6174;49.058;8.524;2022-12-18T14:33:20;27.30;;;21.53;;
12222;SDS011;6174;49.058;8.524;2022-12-18T14:35:52;33.07;;;25.77;;
12222;SDS011;6174;49.058;8.524;2022-12-18T14:38:21;26.70;;;21.17;;
12222;SDS011;6174;49.058;8.524;2022-12-18T14:40:54;29.13;;;22.17;;
12222;SDS011;6174;49.058;8.524;2022-12-18T14:43:27;27.53;;;21.60;;
12222;SDS011;6174;49.058;8.524;2022-12-18T14:45:55;28.87;;;22.43;;
12222;SDS011;6174;49.058;8.524;2022-12-18T14:48:24;28.23;;;22.50;;
12222;SDS011;6174;49.058;8.524;2022-12-18T14:51:01;31.00;;;22.73;;
12222;SDS011;6174;49.058;8.524;2022-12-18T14:53:34;28.87;;;22.63;;
12222;SDS011;6174;49.058;8.524;2022-12-18T14:56:03;28.30;;;21.83;;
12222;SDS011;6174;49.058;8.524;2022-12-18T14:58:47;30.03;;;23.33;;
12222;SDS011;6174;49.058;8.524;2022-12-18T15:01:19;32.80;;;23.77;;
12222;SDS011;6174;49.058;8.524;2022-12-18T15:03:47;29.47;;;23.13;;
12222;SDS011;6174;49.058;8.524;2022-12-18T15:06:15;29.47;;;22.20;;
12222;SDS011;6174;49.058;8.524;2022-12-18T15:08:43;29.57;;;21.80;;
12222;SDS011;6174;49.058;8.524;2022-12-18T15:11:25;29.20;;;22.10;;
12222;SDS011;6174;49.058;8.524;2022-12-18T15:13:54;26.23;;;21.77;;
12222;SDS011;6174;49.058;8.524;2022-12-18T15:16:21;30.27;;;22.87;;
12222;SDS011;6174;49.058;8.524;2022-12-18T15:18:48;31.67;;;22.97;;
12222;SDS011;6174;49.058;8.524;2022-12-18T15:21:16;29.30;;;22.03;;
12222;SDS011;6174;49.058;8.524;2022-12-18T15:23:46;35.37;;;23.27;;
12222;SDS011;6174;49.058;8.524;2022-12-18T15:26:14;31.30;;;22.43;;
12222;SDS011;6174;49.058;8.524;2022-12-18T15:28:44;30.87;;;22.50;;
12222;SDS011;6174;49.058;8.524;2022-12-18T15:31:23;31.83;;;22.90;;
12222;SDS011;6174;49.058;8.524;2022-12-18T15:34:05;28.67;;;21.67;;
12222;SDS011;6174;49.058;8.524;2022-12-18T15:36:37;29.67;;;22.60;;
12222;SDS011;6174;49.058;8.524;2022-12-18T15:39:04;31.90;;;23.17;;
12222;SDS011;6174;49.058;8.524;2022-12-18T15:41:32;30.10;;;22.93;;
12222;SDS011;6174;49.058;8.524;2022-12-18T15:44:00;35.60;;;26.37;;
12222;SDS011;6174;49.058;8.524;2022-12-18T15:46:27;32.57;;;24.03;;
12222;SDS011;6174;49.058;8.524;2022-12-18T15:48:56;31.10;;;23.47;;
12222;SDS011;6174;49.058;8.524;2022-12-18T15:51:24;32.03;;;23.17;;
12222;SDS011;6174;49.058;8.524;2022-12-18T15:53:55;29.57;;;22.57;;
12222;SDS011;6174;49.058;8.524;2022-12-18T15:56:24;32.17;;;24.33;;
12222;SDS011;6174;49.058;8.524;2022-12-18T15:59:09;30.53;;;23.00;;
12222;SDS011;6174;49.058;8.524;2022-12-18T16:01:39;35.60;;;23.07;;
12222;SDS011;6174;49.058;8.524;2022-12-18T16:04:08;29.63;;;22.67;;
12222;SDS011;6174;49.058;8.524;2022-12-18T16:06:36;27.53;;;20.57;;
12222;SDS011;6174;49.058;8.524;2022-12-18T16:09:04;28.27;;;22.00;;
12222;SDS011;6174;49.058;8.524;2022-12-18T16:11:32;30.17;;;22.53;;
12222;SDS011;6174;49.058;8.524;2022-12-18T16:14:10;28.73;;;22.93;;
12222;SDS011;6174;49.058;8.524;2022-12-18T16:16:43;33.93;;;24.60;;
12222;SDS011;6174;49.058;8.524;2022-12-18T16:19:10;31.47;;;22.63;;
12222;SDS011;6174;49.058;8.524;2022-12-18T16:21:37;37.10;;;26.93;;
12222;SDS011;6174;49.058;8.524;2022-12-18T16:24:04;37.40;;;26.17;;
12222;SDS011;6174;49.058;8.524;2022-12-18T16:26:31;35.63;;;26.87;;
12222;SDS011;6174;49.058;8.524;2022-12-18T16:28:58;39.30;;;29.57;;
12222;SDS011;6174;49.058;8.524;2022-12-18T16:31:24;64.43;;;41.27;;
12222;SDS011;6174;49.058;8.524;2022-12-18T16:36:37;36.53;;;26.80;;
12222;SDS011;6174;49.058;8.524;2022-12-18T16:39:04;42.07;;;31.73;;
12222;SDS011;6174;49.058;8.524;2022-12-18T16:41:31;34.87;;;26.53;;
12222;SDS011;6174;49.058;8.524;2022-12-18T16:43:58;39.30;;;29.43;;
12222;SDS011;6174;49.058;8.524;2022-12-18T16:46:25;46.27;;;32.80;;
12222;SDS011;6174;49.058;8.524;2022-12-18T16:48:51;43.63;;;29.90;;
12222;SDS011;6174;49.058;8.524;2022-12-18T16:51:19;51.67;;;34.60;;
12222;SDS011;6174;49.058;8.524;2022-12-18T16:53:46;48.77;;;34.57;;
12222;SDS011;6174;49.058;8.524;2022-12-18T16:56:13;50.33;;;33.67;;
12222;SDS011;6174;49.058;8.524;2022-12-18T16:58:40;31.87;;;21.70;;
12222;SDS011;6174;49.058;8.524;2022-12-18T17:01:07;33.83;;;24.00;;
12222;SDS011;6174;49.058;8.524;2022-12-18T17:03:34;28.57;;;22.33;;
12222;SDS011;6174;49.058;8.524;2022-12-18T17:06:01;27.43;;;21.23;;
12222;SDS011;6174;49.058;8.524;2022-12-18T17:08:30;30.90;;;23.87;;
12222;SDS011;6174;49.058;8.524;2022-12-18T17:11:02;37.53;;;25.30;;
12222;SDS011;6174;49.058;8.524;2022-12-18T17:13:30;30.87;;;23.40;;
12222;SDS011;6174;49.058;8.524;2022-12-18T17:16:00;34.37;;;26.50;;
12222;SDS011;6174;49.058;8.524;2022-12-18T17:18:28;36.37;;;26.53;;
12222;SDS011;6174;49.058;8.524;2022-12-18T17:20:57;28.30;;;21.70;;
12222;SDS011;6174;49.058;8.524;2022-12-18T17:23:25;30.10;;;22.63;;
12222;SDS011;6174;49.058;8.524;2022-12-18T17:25:54;36.97;;;26.10;;
12222;SDS011;6174;49.058;8.524;2022-12-18T17:28:24;30.17;;;23.23;;
12222;SDS011;6174;49.058;8.524;2022-12-18T17:30:56;32.87;;;23.10;;
12222;SDS011;6174;49.058;8.524;2022-12-18T17:33:22;32.17;;;23.23;;
12222;SDS011;6174;49.058;8.524;2022-12-18T17:35:49;34.10;;;25.70;;
12222;SDS011;6174;49.058;8.524;2022-12-18T17:38:16;34.23;;;26.27;;
12222;SDS011;6174;49.058;8.524;2022-12-18T17:40:44;31.90;;;23.50;;
12222;SDS011;6174;49.058;8.524;2022-12-18T17:43:12;36.20;;;26.80;;
12222;SDS011;6174;49.058;8.524;2022-12-18T17:45:39;32.47;;;24.30;;
12222;SDS011;6174;49.058;8.524;2022-12-18T17:48:06;33.43;;;25.47;;
12222;SDS011;6174;49.058;8.524;2022-12-18T17:50:34;36.03;;;27.60;;
12222;SDS011;6174;49.058;8.524;2022-12-18T17:53:02;33.70;;;26.00;;
12222;SDS011;6174;49.058;8.524;2022-12-18T17:55:28;37.03;;;26.13;;
12222;SDS011;6174;49.058;8.524;2022-12-18T17:57:55;36.13;;;27.03;;
12222;SDS011;6174;49.058;8.524;2022-12-18T18:00:26;44.40;;;31.43;;
12222;SDS011;6174;49.058;8.524;2022-12-18T18:03:11;47.37;;;35.43;;
12222;SDS011;6174;49.058;8.524;2022-12-18T18:05:38;39.80;;;29.90;;
12222;SDS011;6174;49.058;8.524;2022-12-18T18:08:05;40.57;;;29.13;;
12222;SDS011;6174;49.058;8.524;2022-12-18T18:10:34;39.73;;;30.03;;
12222;SDS011;6174;49.058;8.524;2022-12-18T18:13:02;42.97;;;31.07;;
12222;SDS011;6174;49.058;8.524;2022-12-18T18:15:54;39.93;;;28.33;;
12222;SDS011;6174;49.058;8.524;2022-12-18T18:18:22;35.97;;;26.43;;
12222;SDS011;6174;49.058;8.524;2022-12-18T18:20:49;33.33;;;25.40;;
12222;SDS011;6174;49.058;8.524;2022-12-18T18:23:15;36.43;;;26.53;;
12222;SDS011;6174;49.058;8.524;2022-12-18T18:25:42;36.43;;;26.90;;
12222;SDS011;6174;49.058;8.524;2022-12-18T18:28:09;38.53;;;27.50;;
12222;SDS011;6174;49.058;8.524;2022-12-18T18:30:36;34.50;;;26.03;;
12222;SDS011;6174;49.058;8.524;2022-12-18T18:33:04;31.73;;;24.03;;
12222;SDS011;6174;49.058;8.524;2022-12-18T18:35:31;33.97;;;23.87;;
12222;SDS011;6174;49.058;8.524;2022-12-18T18:37:58;33.03;;;24.90;;
12222;SDS011;6174;49.058;8.524;2022-12-18T18:40:24;45.93;;;30.90;;
12222;SDS011;6174;49.058;8.524;2022-12-18T18:43:06;39.10;;;27.50;;
12222;SDS011;6174;49.058;8.524;2022-12-18T18:45:36;40.70;;;28.80;;
12222;SDS011;6174;49.058;8.524;2022-12-18T18:50:39;39.43;;;27.07;;
12222;SDS011;6174;49.058;8.524;2022-12-18T18:53:08;34.70;;;25.97;;
12222;SDS011;6174;49.058;8.524;2022-12-18T18:55:34;40.90;;;27.97;;
12222;SDS011;6174;49.058;8.524;2022-12-18T18:58:02;36.53;;;25.80;;
12222;SDS011;6174;49.058;8.524;2022-12-18T19:00:29;35.30;;;25.80;;
12222;SDS011;6174;49.058;8.524;2022-12-18T19:02:56;36.40;;;25.13;;
12222;SDS011;6174;49.058;8.524;2022-12-18T19:05:22;41.60;;;28.47;;
12222;SDS011;6174;49.058;8.524;2022-12-18T19:07:54;36.80;;;25.97;;
12222;SDS011;6174;49.058;8.524;2022-12-18T19:10:20;37.17;;;26.07;;
12222;SDS011;6174;49.058;8.524;2022-12-18T19:12:47;35.83;;;24.87;;
12222;SDS011;6174;49.058;8.524;2022-12-18T19:15:32;42.17;;;30.90;;
12222;SDS011;6174;49.058;8.524;2022-12-18T19:17:59;39.53;;;27.63;;
12222;SDS011;6174;49.058;8.524;2022-12-18T19:20:26;41.93;;;28.40;;
12222;SDS011;6174;49.058;8.524;2022-12-18T19:22:55;41.47;;;29.10;;
12222;SDS011;6174;49.058;8.524;2022-12-18T19:25:23;36.27;;;26.07;;
12222;SDS011;6174;49.058;8.524;2022-12-18T19:27:52;37.07;;;25.47;;
12222;SDS011;6174;49.058;8.524;2022-12-18T19:30:18;35.77;;;25.63;;
12222;SDS011;6174;49.058;8.524;2022-12-18T19:32:45;33.93;;;24.50;;
12222;SDS011;6174;49.058;8.524;2022-12-18T19:35:12;34.03;;;24.83;;
12222;SDS011;6174;49.058;8.524;2022-12-18T19:37:39;33.40;;;24.43;;
12222;SDS011;6174;49.058;8.524;2022-12-18T19:40:08;33.67;;;23.87;;
12222;SDS011;6174;49.058;8.524;2022-12-18T19:42:35;34.23;;;22.80;;
12222;SDS011;6174;49.058;8.524;2022-12-18T19:45:05;31.67;;;22.07;;
12222;SDS011;6174;49.058;8.524;2022-12-18T19:47:32;31.67;;;22.60;;
12222;SDS011;6174;49.058;8.524;2022-12-18T19:49:59;33.27;;;22.47;;
12222;SDS011;6174;49.058;8.524;2022-12-18T19:52:25;38.57;;;23.67;;
12222;SDS011;6174;49.058;8.524;2022-12-18T19:54:52;36.33;;;24.40;;
12222;SDS011;6174;49.058;8.524;2022-12-18T19:57:20;35.40;;;24.10;;
12222;SDS011;6174;49.058;8.524;2022-12-18T19:59:47;35.83;;;24.10;;
12222;SDS011;6174;49.058;8.524;2022-12-18T20:02:13;35.83;;;23.83;;
12222;SDS011;6174;49.058;8.524;2022-12-18T20:04:40;34.23;;;23.83;;
12222;SDS011;6174;49.058;8.524;2022-12-18T20:07:07;34.47;;;24.10;;
12222;SDS011;6174;49.058;8.524;2022-12-18T20:09:34;34.10;;;23.93;;
12222;SDS011;6174;49.058;8.524;2022-12-18T20:12:01;32.60;;;24.30;;
12222;SDS011;6174;49.058;8.524;2022-12-18T20:14:29;35.77;;;24.70;;
12222;SDS011;6174;49.058;8.524;2022-12-18T20:16:55;34.20;;;23.47;;
12222;SDS011;6174;49.058;8.524;2022-12-18T20:19:22;27.73;;;18.97;;
12222;SDS011;6174;49.058;8.524;2022-12-18T20:21:49;29.23;;;20.90;;
12222;SDS011;6174;49.058;8.524;2022-12-18T20:24:16;28.67;;;21.03;;
12222;SDS011;6174;49.058;8.524;2022-12-18T20:26:43;33.30;;;22.90;;
12222;SDS011;6174;49.058;8.524;2022-12-18T20:29:09;32.67;;;23.90;;
12222;SDS011;6174;49.058;8.524;2022-12-18T20:31:37;37.67;;;23.77;;
12222;SDS011;6174;49.058;8.524;2022-12-18T20:34:05;32.83;;;23.80;;
12222;SDS011;6174;49.058;8.524;2022-12-18T20:36:31;32.07;;;23.93;;
12222;SDS011;6174;49.058;8.524;2022-12-18T20:38:58;34.20;;;23.87;;
12222;SDS011;6174;49.058;8.524;2022-12-18T20:41:25;34.63;;;23.50;;
12222;SDS011;6174;49.058;8.524;2022-12-18T20:43:52;32.50;;;22.97;;
12222;SDS011;6174;49.058;8.524;2022-12-18T20:46:19;33.70;;;23.13;;
12222;SDS011;6174;49.058;8.524;2022-12-18T20:48:47;30.63;;;23.20;;
12222;SDS011;6174;49.058;8.524;2022-12-18T20:51:15;35.83;;;24.77;;
12222;SDS011;6174;49.058;8.524;2022-12-18T20:53:43;31.73;;;22.60;;
12222;SDS011;6174;49.058;8.524;2022-12-18T20:56:11;32.33;;;23.97;;
12222;SDS011;6174;49.058;8.524;2022-12-18T20:58:39;38.37;;;26.43;;
12222;SDS011;6174;49.058;8.524;2022-12-18T21:01:07;43.83;;;30.23;;
12222;SDS011;6174;49.058;8.524;2022-12-18T21:03:35;35.40;;;26.40;;
12222;SDS011;6174;49.058;8.524;2022-12-18T21:06:04;34.87;;;24.43;;